sensor_id;sensor_type;location;lat;lon;timestamp;temperature;humidity
28175;SHT30;59417;44.788;10.334;2024-01-25T00:00:56;6.33;74.95
28175;SHT30;59417;44.788;10.334;2024-01-25T00:03:22;6.54;74.25
28175;SHT30;59417;44.788;10.334;2024-01-25T00:05:48;6.19;75.31
28175;SHT30;59417;44.788;10.334;2024-01-25T00:08:17;6.14;75.31
28175;SHT30;59417;44.788;10.334;2024-01-25T00:10:43;6.38;74.37
28175;SHT30;59417;44.788;10.334;2024-01-25T00:13:09;6.09;75.17
28175;SHT30;59417;44.788;10.334;2024-01-25T00:15:35;6.05;75.58
28175;SHT30;59417;44.788;10.334;2024-01-25T00:18:01;5.88;75.92
28175;SHT30;59417;44.788;10.334;2024-01-25T00:20:27;5.93;75.65
28175;SHT30;59417;44.788;10.334;2024-01-25T00:22:52;5.86;76.15
28175;SHT30;59417;44.788;10.334;2024-01-25T00:25:21;5.98;75.72
28175;SHT30;59417;44.788;10.334;2024-01-25T00:27:50;5.95;76.06
28175;SHT30;59417;44.788;10.334;2024-01-25T00:30:16;5.95;76.17
28175;SHT30;59417;44.788;10.334;2024-01-25T00:32:42;5.82;76.11
28175;SHT30;59417;44.788;10.334;2024-01-25T00:35:09;5.72;76.33
28175;SHT30;59417;44.788;10.334;2024-01-25T00:37:37;5.86;76.15
28175;SHT30;59417;44.788;10.334;2024-01-25T00:40:03;6.00;75.76
28175;SHT30;59417;44.788;10.334;2024-01-25T00:42:35;5.78;77.00
28175;SHT30;59417;44.788;10.334;2024-01-25T00:45:06;5.85;76.73
28175;SHT30;59417;44.788;10.334;2024-01-25T00:47:32;5.86;76.72
28175;SHT30;59417;44.788;10.334;2024-01-25T00:50:04;5.90;76.06
28175;SHT30;59417;44.788;10.334;2024-01-25T00:52:30;6.03;75.87
28175;SHT30;59417;44.788;10.334;2024-01-25T00:55:01;6.00;76.27
28175;SHT30;59417;44.788;10.334;2024-01-25T00:57:34;6.06;76.10
28175;SHT30;59417;44.788;10.334;2024-01-25T01:00:07;6.48;74.99
28175;SHT30;59417;44.788;10.334;2024-01-25T01:02:44;6.19;75.46
28175;SHT30;59417;44.788;10.334;2024-01-25T01:05:13;6.14;75.58
28175;SHT30;59417;44.788;10.334;2024-01-25T01:07:42;5.98;76.96
28175;SHT30;59417;44.788;10.334;2024-01-25T01:10:10;5.99;76.06
28175;SHT30;59417;44.788;10.334;2024-01-25T01:12:36;6.20;75.98
28175;SHT30;59417;44.788;10.334;2024-01-25T01:15:03;6.14;76.43
28175;SHT30;59417;44.788;10.334;2024-01-25T01:17:29;6.17;75.42
28175;SHT30;59417;44.788;10.334;2024-01-25T01:19:55;6.12;75.84
28175;SHT30;59417;44.788;10.334;2024-01-25T01:22:21;6.16;75.75
28175;SHT30;59417;44.788;10.334;2024-01-25T01:24:47;6.29;75.52
28175;SHT30;59417;44.788;10.334;2024-01-25T01:27:13;6.23;75.53
28175;SHT30;59417;44.788;10.334;2024-01-25T01:29:39;6.17;75.61
28175;SHT30;59417;44.788;10.334;2024-01-25T01:32:05;6.17;75.46
28175;SHT30;59417;44.788;10.334;2024-01-25T01:34:31;6.17;75.27
28175;SHT30;59417;44.788;10.334;2024-01-25T01:37:05;6.17;74.98
28175;SHT30;59417;44.788;10.334;2024-01-25T01:39:34;6.20;74.80
28175;SHT30;59417;44.788;10.334;2024-01-25T01:42:00;6.17;74.93
28175;SHT30;59417;44.788;10.334;2024-01-25T01:44:29;6.14;75.15
28175;SHT30;59417;44.788;10.334;2024-01-25T01:46:58;6.02;75.51
28175;SHT30;59417;44.788;10.334;2024-01-25T01:49:32;5.92;75.57
28175;SHT30;59417;44.788;10.334;2024-01-25T01:52:01;5.96;75.74
28175;SHT30;59417;44.788;10.334;2024-01-25T01:54:30;6.03;75.45
28175;SHT30;59417;44.788;10.334;2024-01-25T01:56:56;5.96;75.80
28175;SHT30;59417;44.788;10.334;2024-01-25T01:59:22;5.89;76.25
28175;SHT30;59417;44.788;10.334;2024-01-25T02:01:52;5.75;76.35
28175;SHT30;59417;44.788;10.334;2024-01-25T02:04:18;5.59;76.60
28175;SHT30;59417;44.788;10.334;2024-01-25T02:06:46;5.89;75.84
28175;SHT30;59417;44.788;10.334;2024-01-25T02:09:13;5.75;76.33
28175;SHT30;59417;44.788;10.334;2024-01-25T02:11:39;5.64;77.22
28175;SHT30;59417;44.788;10.334;2024-01-25T02:14:04;5.86;75.56
28175;SHT30;59417;44.788;10.334;2024-01-25T02:16:32;5.49;76.66
28175;SHT30;59417;44.788;10.334;2024-01-25T02:19:00;5.71;76.32
28175;SHT30;59417;44.788;10.334;2024-01-25T02:21:26;5.62;76.46
28175;SHT30;59417;44.788;10.334;2024-01-25T02:23:52;5.42;77.39
28175;SHT30;59417;44.788;10.334;2024-01-25T02:26:18;5.47;77.56
28175;SHT30;59417;44.788;10.334;2024-01-25T02:28:47;5.52;77.23
28175;SHT30;59417;44.788;10.334;2024-01-25T02:31:14;5.74;76.23
28175;SHT30;59417;44.788;10.334;2024-01-25T02:33:40;5.82;75.59
28175;SHT30;59417;44.788;10.334;2024-01-25T02:36:06;5.44;77.26
28175;SHT30;59417;44.788;10.334;2024-01-25T02:38:32;5.44;77.25
28175;SHT30;59417;44.788;10.334;2024-01-25T02:40:58;5.35;76.74
28175;SHT30;59417;44.788;10.334;2024-01-25T02:43:24;5.28;77.38
28175;SHT30;59417;44.788;10.334;2024-01-25T02:45:51;5.45;77.04
28175;SHT30;59417;44.788;10.334;2024-01-25T02:48:17;5.65;76.53
28175;SHT30;59417;44.788;10.334;2024-01-25T02:50:43;5.45;77.36
28175;SHT30;59417;44.788;10.334;2024-01-25T02:53:08;5.38;77.68
28175;SHT30;59417;44.788;10.334;2024-01-25T02:55:37;5.35;77.88
28175;SHT30;59417;44.788;10.334;2024-01-25T02:58:02;5.39;77.30
28175;SHT30;59417;44.788;10.334;2024-01-25T03:00:29;5.41;77.46
28175;SHT30;59417;44.788;10.334;2024-01-25T03:02:55;5.34;77.17
28175;SHT30;59417;44.788;10.334;2024-01-25T03:05:21;5.42;76.94
28175;SHT30;59417;44.788;10.334;2024-01-25T03:07:50;5.42;76.82
28175;SHT30;59417;44.788;10.334;2024-01-25T03:10:19;5.58;76.57
28175;SHT30;59417;44.788;10.334;2024-01-25T03:12:46;5.49;76.22
28175;SHT30;59417;44.788;10.334;2024-01-25T03:15:11;5.41;76.56
28175;SHT30;59417;44.788;10.334;2024-01-25T03:17:40;5.39;76.46
28175;SHT30;59417;44.788;10.334;2024-01-25T03:20:07;5.44;76.61
28175;SHT30;59417;44.788;10.334;2024-01-25T03:22:33;5.31;77.70
28175;SHT30;59417;44.788;10.334;2024-01-25T03:25:01;5.34;77.76
28175;SHT30;59417;44.788;10.334;2024-01-25T03:27:28;5.30;77.29
28175;SHT30;59417;44.788;10.334;2024-01-25T03:29:53;5.52;76.49
28175;SHT30;59417;44.788;10.334;2024-01-25T03:32:21;5.49;76.28
28175;SHT30;59417;44.788;10.334;2024-01-25T03:34:48;5.13;77.34
28175;SHT30;59417;44.788;10.334;2024-01-25T03:37:18;5.08;77.60
28175;SHT30;59417;44.788;10.334;2024-01-25T03:39:45;5.01;77.93
28175;SHT30;59417;44.788;10.334;2024-01-25T03:42:11;5.13;77.79
28175;SHT30;59417;44.788;10.334;2024-01-25T03:44:38;5.48;76.20
28175;SHT30;59417;44.788;10.334;2024-01-25T03:47:09;5.06;77.65
28175;SHT30;59417;44.788;10.334;2024-01-25T03:49:37;5.32;77.06
28175;SHT30;59417;44.788;10.334;2024-01-25T03:52:07;5.04;78.52
28175;SHT30;59417;44.788;10.334;2024-01-25T03:54:40;4.96;78.53
28175;SHT30;59417;44.788;10.334;2024-01-25T03:57:13;5.06;78.30
28175;SHT30;59417;44.788;10.334;2024-01-25T03:59:41;5.14;77.67
28175;SHT30;59417;44.788;10.334;2024-01-25T04:02:08;5.13;77.46
28175;SHT30;59417;44.788;10.334;2024-01-25T04:04:38;5.24;77.17
28175;SHT30;59417;44.788;10.334;2024-01-25T04:07:06;5.26;76.49
28175;SHT30;59417;44.788;10.334;2024-01-25T04:09:32;5.18;76.51
28175;SHT30;59417;44.788;10.334;2024-01-25T04:12:00;5.18;76.95
28175;SHT30;59417;44.788;10.334;2024-01-25T04:14:27;5.24;77.01
28175;SHT30;59417;44.788;10.334;2024-01-25T04:16:55;5.20;76.75
28175;SHT30;59417;44.788;10.334;2024-01-25T04:19:21;5.14;76.87
28175;SHT30;59417;44.788;10.334;2024-01-25T04:21:53;5.18;76.80
28175;SHT30;59417;44.788;10.334;2024-01-25T04:24:20;5.08;76.90
28175;SHT30;59417;44.788;10.334;2024-01-25T04:26:47;5.16;76.96
28175;SHT30;59417;44.788;10.334;2024-01-25T04:29:14;5.20;77.05
28175;SHT30;59417;44.788;10.334;2024-01-25T04:31:47;5.23;77.12
28175;SHT30;59417;44.788;10.334;2024-01-25T04:34:18;5.28;77.00
28175;SHT30;59417;44.788;10.334;2024-01-25T04:36:48;5.37;76.49
28175;SHT30;59417;44.788;10.334;2024-01-25T04:39:17;5.17;76.50
28175;SHT30;59417;44.788;10.334;2024-01-25T04:41:44;5.07;77.08
28175;SHT30;59417;44.788;10.334;2024-01-25T04:44:13;5.08;76.79
28175;SHT30;59417;44.788;10.334;2024-01-25T04:46:42;5.03;76.94
28175;SHT30;59417;44.788;10.334;2024-01-25T04:49:08;5.06;77.16
28175;SHT30;59417;44.788;10.334;2024-01-25T04:51:35;5.06;76.93
28175;SHT30;59417;44.788;10.334;2024-01-25T04:54:04;5.06;76.70
28175;SHT30;59417;44.788;10.334;2024-01-25T04:56:30;4.84;76.91
28175;SHT30;59417;44.788;10.334;2024-01-25T04:58:56;4.63;77.65
28175;SHT30;59417;44.788;10.334;2024-01-25T05:01:24;4.68;77.67
28175;SHT30;59417;44.788;10.334;2024-01-25T05:03:50;4.73;77.04
28175;SHT30;59417;44.788;10.334;2024-01-25T05:06:16;4.76;77.22
28175;SHT30;59417;44.788;10.334;2024-01-25T05:08:44;4.80;77.27
28175;SHT30;59417;44.788;10.334;2024-01-25T05:11:11;4.90;77.28
28175;SHT30;59417;44.788;10.334;2024-01-25T05:13:37;4.87;76.67
28175;SHT30;59417;44.788;10.334;2024-01-25T05:16:03;4.79;76.71
28175;SHT30;59417;44.788;10.334;2024-01-25T05:18:30;4.69;76.61
28175;SHT30;59417;44.788;10.334;2024-01-25T05:20:57;4.73;76.65
28175;SHT30;59417;44.788;10.334;2024-01-25T05:23:27;4.76;76.85
28175;SHT30;59417;44.788;10.334;2024-01-25T05:25:55;4.80;76.69
28175;SHT30;59417;44.788;10.334;2024-01-25T05:28:22;4.79;76.33
28175;SHT30;59417;44.788;10.334;2024-01-25T05:30:50;4.77;76.13
28175;SHT30;59417;44.788;10.334;2024-01-25T05:33:17;4.55;77.16
28175;SHT30;59417;44.788;10.334;2024-01-25T05:35:50;4.49;76.81
28175;SHT30;59417;44.788;10.334;2024-01-25T05:38:20;4.38;76.86
28175;SHT30;59417;44.788;10.334;2024-01-25T05:40:46;4.41;77.11
28175;SHT30;59417;44.788;10.334;2024-01-25T05:43:13;4.42;77.19
28175;SHT30;59417;44.788;10.334;2024-01-25T05:45:39;4.32;77.11
28175;SHT30;59417;44.788;10.334;2024-01-25T05:48:05;4.33;77.01
28175;SHT30;59417;44.788;10.334;2024-01-25T05:50:32;4.36;77.36
28175;SHT30;59417;44.788;10.334;2024-01-25T05:53:00;4.86;76.64
28175;SHT30;59417;44.788;10.334;2024-01-25T05:55:31;4.56;77.04
28175;SHT30;59417;44.788;10.334;2024-01-25T05:58:00;4.18;78.89
28175;SHT30;59417;44.788;10.334;2024-01-25T06:00:28;4.38;79.37
28175;SHT30;59417;44.788;10.334;2024-01-25T06:03:07;4.62;77.75
28175;SHT30;59417;44.788;10.334;2024-01-25T06:05:34;4.26;79.20
28175;SHT30;59417;44.788;10.334;2024-01-25T06:08:00;4.14;79.92
28175;SHT30;59417;44.788;10.334;2024-01-25T06:10:26;4.21;79.53
28175;SHT30;59417;44.788;10.334;2024-01-25T06:12:55;4.22;79.10
28175;SHT30;59417;44.788;10.334;2024-01-25T06:15:23;4.28;78.58
28175;SHT30;59417;44.788;10.334;2024-01-25T06:17:49;4.18;79.04
28175;SHT30;59417;44.788;10.334;2024-01-25T06:20:15;4.21;79.42
28175;SHT30;59417;44.788;10.334;2024-01-25T06:22:53;4.22;79.24
28175;SHT30;59417;44.788;10.334;2024-01-25T06:25:19;4.31;79.15
28175;SHT30;59417;44.788;10.334;2024-01-25T06:27:45;4.42;78.33
28175;SHT30;59417;44.788;10.334;2024-01-25T06:30:14;4.48;78.28
28175;SHT30;59417;44.788;10.334;2024-01-25T06:32:40;4.39;78.36
28175;SHT30;59417;44.788;10.334;2024-01-25T06:35:09;4.68;77.42
28175;SHT30;59417;44.788;10.334;2024-01-25T06:37:39;4.66;77.52
28175;SHT30;59417;44.788;10.334;2024-01-25T06:40:25;4.21;79.02
28175;SHT30;59417;44.788;10.334;2024-01-25T06:43:15;4.15;79.12
28175;SHT30;59417;44.788;10.334;2024-01-25T06:45:46;4.14;79.27
28175;SHT30;59417;44.788;10.334;2024-01-25T06:48:13;4.29;78.89
28175;SHT30;59417;44.788;10.334;2024-01-25T06:50:39;4.32;78.33
28175;SHT30;59417;44.788;10.334;2024-01-25T06:53:05;4.18;78.90
28175;SHT30;59417;44.788;10.334;2024-01-25T06:55:31;4.14;79.27
28175;SHT30;59417;44.788;10.334;2024-01-25T06:57:59;4.33;78.99
28175;SHT30;59417;44.788;10.334;2024-01-25T07:00:27;4.45;78.03
28175;SHT30;59417;44.788;10.334;2024-01-25T07:02:53;4.36;78.47
28175;SHT30;59417;44.788;10.334;2024-01-25T07:05:20;4.32;78.70
28175;SHT30;59417;44.788;10.334;2024-01-25T07:07:45;4.49;78.93
28175;SHT30;59417;44.788;10.334;2024-01-25T07:10:19;4.61;78.73
28175;SHT30;59417;44.788;10.334;2024-01-25T07:12:45;4.63;78.36
28175;SHT30;59417;44.788;10.334;2024-01-25T07:15:12;4.56;77.61
28175;SHT30;59417;44.788;10.334;2024-01-25T07:17:38;4.62;77.85
28175;SHT30;59417;44.788;10.334;2024-01-25T07:20:09;4.48;78.60
28175;SHT30;59417;44.788;10.334;2024-01-25T07:22:38;4.35;78.82
28175;SHT30;59417;44.788;10.334;2024-01-25T07:25:04;4.32;79.50
28175;SHT30;59417;44.788;10.334;2024-01-25T07:27:30;4.46;79.39
28175;SHT30;59417;44.788;10.334;2024-01-25T07:30:03;4.63;78.95
28175;SHT30;59417;44.788;10.334;2024-01-25T07:32:30;4.61;78.69
28175;SHT30;59417;44.788;10.334;2024-01-25T07:35:05;4.65;78.97
28175;SHT30;59417;44.788;10.334;2024-01-25T07:37:35;4.71;79.13
28175;SHT30;59417;44.788;10.334;2024-01-25T07:40:02;4.68;79.00
28175;SHT30;59417;44.788;10.334;2024-01-25T07:42:35;4.86;78.38
28175;SHT30;59417;44.788;10.334;2024-01-25T07:45:02;4.68;79.47
28175;SHT30;59417;44.788;10.334;2024-01-25T07:47:29;4.66;79.75
28175;SHT30;59417;44.788;10.334;2024-01-25T07:49:59;4.75;79.90
28175;SHT30;59417;44.788;10.334;2024-01-25T07:52:30;4.94;79.40
28175;SHT30;59417;44.788;10.334;2024-01-25T07:54:59;4.92;79.72
28175;SHT30;59417;44.788;10.334;2024-01-25T07:57:32;5.06;79.78
28175;SHT30;59417;44.788;10.334;2024-01-25T07:59:58;5.13;79.77
28175;SHT30;59417;44.788;10.334;2024-01-25T08:02:36;5.21;79.50
28175;SHT30;59417;44.788;10.334;2024-01-25T08:05:08;5.30;79.13
28175;SHT30;59417;44.788;10.334;2024-01-25T08:07:36;5.37;78.89
28175;SHT30;59417;44.788;10.334;2024-01-25T08:10:04;5.32;79.08
28175;SHT30;59417;44.788;10.334;2024-01-25T08:12:34;5.37;79.24
28175;SHT30;59417;44.788;10.334;2024-01-25T08:15:01;5.47;78.97
28175;SHT30;59417;44.788;10.334;2024-01-25T08:17:31;5.54;78.87
28175;SHT30;59417;44.788;10.334;2024-01-25T08:20:05;5.71;78.81
28175;SHT30;59417;44.788;10.334;2024-01-25T08:22:35;5.78;78.56
28175;SHT30;59417;44.788;10.334;2024-01-25T08:25:02;5.98;77.90
28175;SHT30;59417;44.788;10.334;2024-01-25T08:27:30;6.05;78.01
28175;SHT30;59417;44.788;10.334;2024-01-25T08:30:00;5.98;78.50
28175;SHT30;59417;44.788;10.334;2024-01-25T08:32:26;6.02;78.76
28175;SHT30;59417;44.788;10.334;2024-01-25T08:34:52;6.14;78.56
28175;SHT30;59417;44.788;10.334;2024-01-25T08:37:19;6.19;78.38
28175;SHT30;59417;44.788;10.334;2024-01-25T08:39:47;6.29;78.30
28175;SHT30;59417;44.788;10.334;2024-01-25T08:42:18;6.55;77.00
28175;SHT30;59417;44.788;10.334;2024-01-25T08:44:45;6.57;77.47
28175;SHT30;59417;44.788;10.334;2024-01-25T08:47:21;6.77;76.53
28175;SHT30;59417;44.788;10.334;2024-01-25T08:49:50;6.81;76.41
28175;SHT30;59417;44.788;10.334;2024-01-25T08:52:18;6.92;76.50
28175;SHT30;59417;44.788;10.334;2024-01-25T08:54:47;7.08;76.19
28175;SHT30;59417;44.788;10.334;2024-01-25T08:57:16;7.14;76.30
28175;SHT30;59417;44.788;10.334;2024-01-25T08:59:44;7.27;75.49
28175;SHT30;59417;44.788;10.334;2024-01-25T09:02:10;7.42;75.47
28175;SHT30;59417;44.788;10.334;2024-01-25T09:04:37;7.68;73.03
28175;SHT30;59417;44.788;10.334;2024-01-25T09:07:03;7.60;73.37
28175;SHT30;59417;44.788;10.334;2024-01-25T09:09:32;7.78;73.99
28175;SHT30;59417;44.788;10.334;2024-01-25T09:11:58;7.86;74.06
28175;SHT30;59417;44.788;10.334;2024-01-25T09:14:29;7.91;74.25
28175;SHT30;59417;44.788;10.334;2024-01-25T09:17:00;8.00;73.42
28175;SHT30;59417;44.788;10.334;2024-01-25T09:19:26;8.01;73.22
28175;SHT30;59417;44.788;10.334;2024-01-25T09:21:55;7.98;72.65
28175;SHT30;59417;44.788;10.334;2024-01-25T09:24:24;7.97;72.41
28175;SHT30;59417;44.788;10.334;2024-01-25T09:26:50;8.00;72.47
28175;SHT30;59417;44.788;10.334;2024-01-25T09:29:16;8.05;72.36
28175;SHT30;59417;44.788;10.334;2024-01-25T09:31:45;8.21;71.95
28175;SHT30;59417;44.788;10.334;2024-01-25T09:34:11;8.28;71.74
28175;SHT30;59417;44.788;10.334;2024-01-25T09:36:37;8.36;71.10
28175;SHT30;59417;44.788;10.334;2024-01-25T09:39:03;8.52;70.08
28175;SHT30;59417;44.788;10.334;2024-01-25T09:41:30;8.50;70.42
28175;SHT30;59417;44.788;10.334;2024-01-25T09:44:01;8.56;70.27
28175;SHT30;59417;44.788;10.334;2024-01-25T09:46:28;8.56;69.63
28175;SHT30;59417;44.788;10.334;2024-01-25T09:48:57;8.52;70.16
28175;SHT30;59417;44.788;10.334;2024-01-25T09:51:26;8.31;70.72
28175;SHT30;59417;44.788;10.334;2024-01-25T09:53:59;8.24;70.54
28175;SHT30;59417;44.788;10.334;2024-01-25T09:56:53;8.22;70.66
28175;SHT30;59417;44.788;10.334;2024-01-25T09:59:45;8.14;71.01
28175;SHT30;59417;44.788;10.334;2024-01-25T10:02:12;8.02;71.64
28175;SHT30;59417;44.788;10.334;2024-01-25T10:04:38;7.97;72.05
28175;SHT30;59417;44.788;10.334;2024-01-25T10:07:07;7.91;72.47
28175;SHT30;59417;44.788;10.334;2024-01-25T10:09:42;8.00;72.46
28175;SHT30;59417;44.788;10.334;2024-01-25T10:12:09;8.14;72.51
28175;SHT30;59417;44.788;10.334;2024-01-25T10:14:35;8.07;71.90
28175;SHT30;59417;44.788;10.334;2024-01-25T10:17:04;7.95;72.75
28175;SHT30;59417;44.788;10.334;2024-01-25T10:19:34;8.02;73.20
28175;SHT30;59417;44.788;10.334;2024-01-25T10:22:06;8.26;72.66
28175;SHT30;59417;44.788;10.334;2024-01-25T10:24:41;8.32;72.95
28175;SHT30;59417;44.788;10.334;2024-01-25T10:27:09;8.39;72.87
28175;SHT30;59417;44.788;10.334;2024-01-25T10:29:40;8.59;72.06
28175;SHT30;59417;44.788;10.334;2024-01-25T10:32:12;8.59;72.52
28175;SHT30;59417;44.788;10.334;2024-01-25T10:34:54;8.63;72.73
28175;SHT30;59417;44.788;10.334;2024-01-25T10:37:21;8.66;72.09
28175;SHT30;59417;44.788;10.334;2024-01-25T10:39:49;8.73;72.60
28175;SHT30;59417;44.788;10.334;2024-01-25T10:42:15;8.83;72.97
28175;SHT30;59417;44.788;10.334;2024-01-25T10:44:56;8.92;72.63
28175;SHT30;59417;44.788;10.334;2024-01-25T10:47:25;9.07;72.60
28175;SHT30;59417;44.788;10.334;2024-01-25T10:50:08;9.07;72.55
28175;SHT30;59417;44.788;10.334;2024-01-25T10:52:55;9.17;71.98
28175;SHT30;59417;44.788;10.334;2024-01-25T10:55:29;9.31;71.76
28175;SHT30;59417;44.788;10.334;2024-01-25T10:57:54;9.44;71.70
28175;SHT30;59417;44.788;10.334;2024-01-25T11:00:21;9.58;71.14
28175;SHT30;59417;44.788;10.334;2024-01-25T11:02:53;9.70;70.86
28175;SHT30;59417;44.788;10.334;2024-01-25T11:05:35;9.89;70.83
28175;SHT30;59417;44.788;10.334;2024-01-25T11:08:01;10.03;70.32
28175;SHT30;59417;44.788;10.334;2024-01-25T11:10:28;10.20;69.90
28175;SHT30;59417;44.788;10.334;2024-01-25T11:12:59;10.23;69.28
28175;SHT30;59417;44.788;10.334;2024-01-25T11:15:36;10.37;69.05
28175;SHT30;59417;44.788;10.334;2024-01-25T11:18:03;10.45;69.06
28175;SHT30;59417;44.788;10.334;2024-01-25T11:20:33;10.63;68.74
28175;SHT30;59417;44.788;10.334;2024-01-25T11:23:04;10.72;68.43
28175;SHT30;59417;44.788;10.334;2024-01-25T11:25:31;10.67;68.44
28175;SHT30;59417;44.788;10.334;2024-01-25T11:28:00;10.75;68.60
28175;SHT30;59417;44.788;10.334;2024-01-25T11:30:33;10.87;68.18
28175;SHT30;59417;44.788;10.334;2024-01-25T11:33:00;11.02;67.97
28175;SHT30;59417;44.788;10.334;2024-01-25T11:35:35;10.99;68.17
28175;SHT30;59417;44.788;10.334;2024-01-25T11:38:04;11.06;68.35
28175;SHT30;59417;44.788;10.334;2024-01-25T11:40:30;11.08;67.90
28175;SHT30;59417;44.788;10.334;2024-01-25T11:43:05;11.13;66.39
28175;SHT30;59417;44.788;10.334;2024-01-25T11:45:36;11.19;66.53
28175;SHT30;59417;44.788;10.334;2024-01-25T11:48:10;11.23;66.39
28175;SHT30;59417;44.788;10.334;2024-01-25T11:50:37;11.20;66.61
28175;SHT30;59417;44.788;10.334;2024-01-25T11:53:05;11.25;67.50
28175;SHT30;59417;44.788;10.334;2024-01-25T11:55:31;11.45;66.61
28175;SHT30;59417;44.788;10.334;2024-01-25T11:58:13;11.53;66.23
28175;SHT30;59417;44.788;10.334;2024-01-25T12:00:41;11.29;66.26
28175;SHT30;59417;44.788;10.334;2024-01-25T12:03:19;11.35;66.64
28175;SHT30;59417;44.788;10.334;2024-01-25T12:05:48;11.42;67.09
28175;SHT30;59417;44.788;10.334;2024-01-25T12:08:28;11.50;66.98
28175;SHT30;59417;44.788;10.334;2024-01-25T12:11:08;11.63;66.43
28175;SHT30;59417;44.788;10.334;2024-01-25T12:14:16;11.56;67.17
28175;SHT30;59417;44.788;10.334;2024-01-25T12:17:07;11.66;67.30
28175;SHT30;59417;44.788;10.334;2024-01-25T12:19:50;11.74;66.94
28175;SHT30;59417;44.788;10.334;2024-01-25T12:22:43;11.71;67.62
28175;SHT30;59417;44.788;10.334;2024-01-25T12:25:10;11.84;67.30
28175;SHT30;59417;44.788;10.334;2024-01-25T12:27:41;11.78;67.37
28175;SHT30;59417;44.788;10.334;2024-01-25T12:30:15;11.77;68.12
28175;SHT30;59417;44.788;10.334;2024-01-25T12:32:54;11.90;68.39
28175;SHT30;59417;44.788;10.334;2024-01-25T12:35:25;12.05;67.78
28175;SHT30;59417;44.788;10.334;2024-01-25T12:38:03;12.11;67.90
28175;SHT30;59417;44.788;10.334;2024-01-25T12:40:33;12.25;67.93
28175;SHT30;59417;44.788;10.334;2024-01-25T12:43:02;12.41;67.18
28175;SHT30;59417;44.788;10.334;2024-01-25T12:45:29;12.37;67.58
28175;SHT30;59417;44.788;10.334;2024-01-25T12:48:01;12.49;67.57
28175;SHT30;59417;44.788;10.334;2024-01-25T12:50:32;12.59;67.80
28175;SHT30;59417;44.788;10.334;2024-01-25T12:53:01;12.59;67.82
28175;SHT30;59417;44.788;10.334;2024-01-25T12:55:31;12.69;67.86
28175;SHT30;59417;44.788;10.334;2024-01-25T12:58:07;12.89;66.97
28175;SHT30;59417;44.788;10.334;2024-01-25T13:01:15;12.93;65.34
28175;SHT30;59417;44.788;10.334;2024-01-25T13:03:41;12.58;65.90
28175;SHT30;59417;44.788;10.334;2024-01-25T13:06:08;12.46;66.25
28175;SHT30;59417;44.788;10.334;2024-01-25T13:08:41;12.46;66.94
28175;SHT30;59417;44.788;10.334;2024-01-25T13:11:11;12.56;67.62
28175;SHT30;59417;44.788;10.334;2024-01-25T13:13:37;12.63;67.12
28175;SHT30;59417;44.788;10.334;2024-01-25T13:16:03;12.68;67.11
28175;SHT30;59417;44.788;10.334;2024-01-25T13:18:32;12.72;66.76
28175;SHT30;59417;44.788;10.334;2024-01-25T13:20:57;12.70;66.46
28175;SHT30;59417;44.788;10.334;2024-01-25T13:23:23;12.66;66.42
28175;SHT30;59417;44.788;10.334;2024-01-25T13:25:49;12.69;66.21
28175;SHT30;59417;44.788;10.334;2024-01-25T13:28:17;12.77;65.78
28175;SHT30;59417;44.788;10.334;2024-01-25T13:30:48;12.84;65.09
28175;SHT30;59417;44.788;10.334;2024-01-25T13:33:19;12.80;65.90
28175;SHT30;59417;44.788;10.334;2024-01-25T13:35:50;12.86;66.41
28175;SHT30;59417;44.788;10.334;2024-01-25T13:38:23;12.80;65.99
28175;SHT30;59417;44.788;10.334;2024-01-25T13:40:50;12.75;66.41
28175;SHT30;59417;44.788;10.334;2024-01-25T13:43:16;12.80;66.32
28175;SHT30;59417;44.788;10.334;2024-01-25T13:45:52;12.83;65.83
28175;SHT30;59417;44.788;10.334;2024-01-25T13:48:24;12.73;65.82
28175;SHT30;59417;44.788;10.334;2024-01-25T13:51:03;12.60;66.40
28175;SHT30;59417;44.788;10.334;2024-01-25T13:53:30;12.53;66.75
28175;SHT30;59417;44.788;10.334;2024-01-25T13:55:56;12.53;66.62
28175;SHT30;59417;44.788;10.334;2024-01-25T13:58:25;12.65;66.06
28175;SHT30;59417;44.788;10.334;2024-01-25T14:00:51;12.65;66.29
28175;SHT30;59417;44.788;10.334;2024-01-25T14:03:20;12.59;66.52
28175;SHT30;59417;44.788;10.334;2024-01-25T14:05:45;12.53;66.83
28175;SHT30;59417;44.788;10.334;2024-01-25T14:08:13;12.58;66.72
28175;SHT30;59417;44.788;10.334;2024-01-25T14:10:42;12.55;66.58
28175;SHT30;59417;44.788;10.334;2024-01-25T14:13:15;12.42;66.77
28175;SHT30;59417;44.788;10.334;2024-01-25T14:15:45;12.41;67.32
28175;SHT30;59417;44.788;10.334;2024-01-25T14:18:14;12.44;67.52
28175;SHT30;59417;44.788;10.334;2024-01-25T14:20:39;12.42;67.49
28175;SHT30;59417;44.788;10.334;2024-01-25T14:23:11;12.42;67.25
28175;SHT30;59417;44.788;10.334;2024-01-25T14:25:38;12.44;67.20
28175;SHT30;59417;44.788;10.334;2024-01-25T14:28:04;12.34;67.55
28175;SHT30;59417;44.788;10.334;2024-01-25T14:30:33;12.31;67.70
28175;SHT30;59417;44.788;10.334;2024-01-25T14:33:01;12.48;67.17
28175;SHT30;59417;44.788;10.334;2024-01-25T14:35:32;12.31;67.52
28175;SHT30;59417;44.788;10.334;2024-01-25T14:38:03;12.27;68.00
28175;SHT30;59417;44.788;10.334;2024-01-25T14:40:29;12.21;68.25
28175;SHT30;59417;44.788;10.334;2024-01-25T14:42:55;12.13;68.45
28175;SHT30;59417;44.788;10.334;2024-01-25T14:45:22;12.07;68.63
28175;SHT30;59417;44.788;10.334;2024-01-25T14:47:48;12.07;68.61
28175;SHT30;59417;44.788;10.334;2024-01-25T14:50:35;11.97;68.85
28175;SHT30;59417;44.788;10.334;2024-01-25T14:53:02;11.95;69.00
28175;SHT30;59417;44.788;10.334;2024-01-25T14:55:52;11.88;69.24
28175;SHT30;59417;44.788;10.334;2024-01-25T14:58:31;11.81;69.35
28175;SHT30;59417;44.788;10.334;2024-01-25T15:01:16;11.86;69.36
28175;SHT30;59417;44.788;10.334;2024-01-25T15:04:28;11.69;69.80
28175;SHT30;59417;44.788;10.334;2024-01-25T15:07:20;11.62;69.88
28175;SHT30;59417;44.788;10.334;2024-01-25T15:09:48;11.67;69.81
28175;SHT30;59417;44.788;10.334;2024-01-25T15:12:14;11.55;70.14
28175;SHT30;59417;44.788;10.334;2024-01-25T15:14:58;11.47;70.42
28175;SHT30;59417;44.788;10.334;2024-01-25T15:17:28;11.45;70.37
28175;SHT30;59417;44.788;10.334;2024-01-25T15:19:57;11.40;70.43
28175;SHT30;59417;44.788;10.334;2024-01-25T15:22:25;11.30;70.59
28175;SHT30;59417;44.788;10.334;2024-01-25T15:25:06;11.27;70.65
28175;SHT30;59417;44.788;10.334;2024-01-25T15:28:03;11.26;70.77
28175;SHT30;59417;44.788;10.334;2024-01-25T15:31:06;11.22;71.02
28175;SHT30;59417;44.788;10.334;2024-01-25T15:33:36;11.19;71.25
28175;SHT30;59417;44.788;10.334;2024-01-25T15:36:13;11.18;71.48
28175;SHT30;59417;44.788;10.334;2024-01-25T15:38:41;11.12;71.54
28175;SHT30;59417;44.788;10.334;2024-01-25T15:41:28;11.12;71.48
28175;SHT30;59417;44.788;10.334;2024-01-25T15:44:04;11.08;71.74